Airfield :
LOGIN :

Register | Disclaimer

   EN    FR    IT 

 










Legend :    VFR   Marginal VFR   IFR   Intensive IFR   Very Intensive IFR
Visi :
Ceiling :
>= 8 km
>= 3000ft
5 to 8 km
1000 to 3000 ft
1500m to 5 km
500 to 1000 ft
800 to 1500m
200 to 500 ft
< 800m
< 200 ft
Symbols :   Thunderstorms  Fog  Heavy snow  Heavy precipitations  Wind > 20 kt
SIGMETs :     Misc.  Thunderstorms  Icing  Turbulence  Mountain Waves  Volcanic Ashes







- Airport Elevation : 1188 ft


LKLN - Plzen Line

CURRENT METAR :
  • 232000Z AUTO VRB03KT CAVOK 15/10 Q1016

EXPIRED METARs :
  • 231900Z AUTO VRB03KT 9999 FEW120 BKN140 17/11 Q1015
  • 231800Z AUTO 25004KT 210V280 9999 OVC100 18/11 Q1015

TAF N/A
No reported NOTAMs for that airfield.
2 SIGMETs reported for the Praha FIR (LKAA) :
 
Squall lined thunderstorms
LKAA SIGMET 9 VALID 231659/232053 LKPW
LKAA PRAHA FIR SQL TS OBS NW OF LINE N4943 E01227 - N5044 E01542 TOP FL350 MOV E WKN=
SIGMET 9  cancelation
LKAA SIGMET 10 VALID 231840/232053 LKPW
LKAA PRAHA FIR CNL SIGMET 9 231659/232053=



MET'MAP, your aeronautical weather chart ! - Copyright ORBIFLY December 2007 - Disclaimer

ORBIFLY MET'MAP TEAM :

Programming & Development : Alexandra Zaïnal
Concept & Development : Baudouin d'Aumeries
Co-Development & Prog : Marc-Olivier Méhu
Technical & hardware support : Manuel Goepfert

Contact : metmap@orbifly.com




SOURCES & CREDITS :

   NOAA